Time;durP1;ratioP1;P1;durP2;ratioP2;P2;SDS_P1;SDS_P2;PMS_P1;PMS_P2;Temp;Humidity;BMP_temperature;BMP_pressure;BME280_temperature;BME280_humidity;BME280_pressure;Samples;Min_cycle;Max_cycle;Signal;HPM_P1;HPM_P2
2024/04/08 00:01:27;;;;;;;5.95;4.30;;;;;;;12.35;100.00;100847.94;4911603;29;20040;-68
2024/04/08 00:03:53;;;;;;;6.25;4.72;;;;;;;12.28;100.00;100848.56;4913820;29;20055;-68
2024/04/08 00:06:18;;;;;;;9.07;4.88;;;;;;;12.25;100.00;100854.06;4912657;29;20044;-68
2024/04/08 00:08:43;;;;;;;10.40;5.72;;;;;;;12.25;100.00;100846.25;4914219;29;20413;-69
2024/04/08 00:11:09;;;;;;;9.63;5.07;;;;;;;12.24;100.00;100843.78;4911481;29;20040;-68
2024/04/08 00:13:39;;;;;;;7.30;4.45;;;;;;;12.21;100.00;100829.22;4913847;29;20373;-69
2024/04/08 00:16:05;;;;;;;6.05;4.55;;;;;;;12.18;100.00;100829.50;4914604;29;20118;-68
2024/04/08 00:18:32;;;;;;;12.27;4.63;;;;;;;12.15;100.00;100829.78;4899484;29;20047;-68
2024/04/08 00:21:05;;;;;;;12.43;5.15;;;;;;;12.13;100.00;100825.69;4914172;29;20099;-68
2024/04/08 00:23:31;;;;;;;8.18;4.45;;;;;;;12.12;100.00;100830.09;4913526;29;20088;-68
2024/04/08 00:26:02;;;;;;;8.13;4.85;;;;;;;12.09;100.00;100819.91;4916222;29;20039;-68
2024/04/08 00:28:27;;;;;;;8.65;4.63;;;;;;;12.06;100.00;100825.44;4913101;29;20058;-68
2024/04/08 00:31:00;;;;;;;10.23;5.18;;;;;;;12.04;100.00;100826.53;4913872;29;20488;-68
2024/04/08 00:33:25;;;;;;;10.23;5.28;;;;;;;12.01;100.00;100825.03;4913637;29;20032;-68
2024/04/08 00:35:51;;;;;;;9.32;4.47;;;;;;;12.01;100.00;100817.22;4913122;29;20048;-68
2024/04/08 00:38:16;;;;;;;11.73;4.75;;;;;;;12.03;100.00;100810.06;4913159;29;20036;-68
2024/04/08 00:40:42;;;;;;;9.82;5.07;;;;;;;12.02;100.00;100805.81;4913137;29;20032;-68
2024/04/08 00:43:07;;;;;;;6.78;4.88;;;;;;;12.04;100.00;100811.69;4913201;29;20043;-69
2024/04/08 00:45:36;;;;;;;7.40;4.95;;;;;;;12.03;100.00;100815.28;4911017;29;20040;-69
2024/04/08 00:48:02;;;;;;;5.65;4.68;;;;;;;12.00;100.00;100810.34;4913639;29;20111;-68
2024/04/08 00:50:28;;;;;;;8.27;4.43;;;;;;;11.96;100.00;100807.19;4913161;29;20040;-68
2024/04/08 00:52:55;;;;;;;9.15;4.65;;;;;;;11.97;100.00;100815.84;4913736;29;20048;-68
2024/04/08 00:55:21;;;;;;;8.43;4.55;;;;;;;11.95;100.00;100815.19;4912558;29;20032;-68
2024/04/08 00:57:48;;;;;;;7.85;4.30;;;;;;;11.88;100.00;100811.50;4913921;29;20044;-68
2024/04/08 01:00:14;;;;;;;7.05;4.22;;;;;;;11.89;100.00;100819.19;4910145;29;20076;-68
2024/04/08 01:02:39;;;;;;;5.93;4.07;;;;;;;11.91;100.00;100808.59;4896444;29;20028;-68
2024/04/08 01:05:06;;;;;;;8.85;4.55;;;;;;;11.90;100.00;100815.59;4912298;29;20429;-68
2024/04/08 01:07:33;;;;;;;8.05;4.63;;;;;;;11.85;100.00;100817.00;4910480;29;20032;-68
2024/04/08 01:09:58;;;;;;;6.20;3.80;;;;;;;11.79;100.00;100807.16;4911969;29;20027;-68
2024/04/08 01:12:24;;;;;;;7.82;4.60;;;;;;;11.79;100.00;100813.22;4910696;29;20191;-68
2024/04/08 01:14:50;;;;;;;6.43;4.25;;;;;;;11.76;100.00;100804.81;4910914;29;20095;-68
2024/04/08 01:17:16;;;;;;;10.50;4.38;;;;;;;11.72;100.00;100806.88;4911276;29;20043;-68
2024/04/08 01:19:42;;;;;;;5.25;4.18;;;;;;;11.71;100.00;100807.03;4911944;29;20491;-68
2024/04/08 01:22:10;;;;;;;5.07;3.60;;;;;;;11.68;100.00;100808.13;4911358;29;20055;-68
2024/04/08 01:24:36;;;;;;;7.50;4.55;;;;;;;11.68;100.00;100802.09;4909196;29;20031;-69
2024/04/08 01:27:01;;;;;;;5.82;4.47;;;;;;;11.65;100.00;100800.59;4907093;29;20130;-68
2024/04/08 01:29:28;;;;;;;7.35;4.25;;;;;;;11.63;100.00;100803.34;4909656;29;20076;-68
2024/04/08 01:31:53;;;;;;;5.97;3.95;;;;;;;11.61;100.00;100794.81;4912733;29;20051;-68
2024/04/08 01:34:19;;;;;;;6.15;4.32;;;;;;;11.62;100.00;100796.47;4910331;29;20036;-68
2024/04/08 01:36:44;;;;;;;6.38;4.28;;;;;;;11.62;100.00;100801.69;4909926;29;20385;-68
2024/04/08 01:39:10;;;;;;;8.10;4.10;;;;;;;11.59;100.00;100807.19;4910429;29;20032;-68
2024/04/08 01:41:35;;;;;;;9.02;4.45;;;;;;;11.54;100.00;100791.13;4909966;29;20086;-68
2024/04/08 01:44:01;;;;;;;5.90;3.75;;;;;;;11.52;100.00;100787.84;4909679;29;20142;-68
2024/04/08 01:46:26;;;;;;;6.88;4.15;;;;;;;11.48;100.00;100789.09;4910478;29;20145;-68
2024/04/08 01:48:52;;;;;;;6.43;4.18;;;;;;;11.46;100.00;100784.97;4912079;29;20048;-68
2024/04/08 01:51:17;;;;;;;7.15;4.45;;;;;;;11.48;100.00;100788.28;4910553;29;20036;-68
2024/04/08 01:53:43;;;;;;;6.75;4.70;;;;;;;11.48;100.00;100788.28;4909461;29;20039;-68
2024/04/08 01:56:08;;;;;;;8.55;5.43;;;;;;;11.47;100.00;100789.25;4907270;29;20145;-68
2024/04/08 01:58:33;;;;;;;8.65;4.78;;;;;;;11.47;100.00;100784.84;4909240;29;20028;-68
2024/04/08 02:00:59;;;;;;;8.50;5.38;;;;;;;11.46;100.00;100777.97;4912108;29;20122;-68
2024/04/08 02:03:24;;;;;;;9.50;6.07;;;;;;;11.46;100.00;100777.97;4906696;29;20349;-68
2024/04/08 02:05:50;;;;;;;10.48;5.47;;;;;;;11.47;100.00;100779.63;4907223;29;20508;-68
2024/04/08 02:08:15;;;;;;;7.93;6.00;;;;;;;11.51;100.00;100773.16;4904941;29;20041;-68
2024/04/08 02:10:43;;;;;;;9.68;5.32;;;;;;;11.52;100.00;100772.19;4907661;29;20115;-68
2024/04/08 02:13:09;;;;;;;11.32;6.30;;;;;;;11.58;100.00;100768.19;4909887;29;20044;-68
2024/04/08 02:15:34;;;;;;;12.25;5.22;;;;;;;11.50;100.00;100768.91;4907638;29;20036;-68
2024/04/08 02:18:00;;;;;;;6.80;4.97;;;;;;;11.48;100.00;100762.19;4911932;29;20120;-68
2024/04/08 02:20:25;;;;;;;7.60;4.50;;;;;;;11.46;100.00;100764.94;4911130;29;20435;-68
2024/04/08 02:22:51;;;;;;;7.45;4.18;;;;;;;11.41;100.00;100761.09;4910388;29;21371;-68
2024/04/08 02:25:17;;;;;;;8.55;5.68;;;;;;;11.39;100.00;100753.41;4911649;29;20024;-68
2024/04/08 02:27:43;;;;;;;12.13;4.70;;;;;;;11.40;100.00;100765.50;4911825;29;20503;-68
2024/04/08 02:30:10;;;;;;;7.82;4.18;;;;;;;11.38;100.00;100757.00;4910466;29;20040;-68
2024/04/08 02:32:35;;;;;;;8.77;4.82;;;;;;;11.35;100.00;100762.50;4913154;29;20028;-68
2024/04/08 02:35:02;;;;;;;10.90;4.72;;;;;;;11.30;100.00;100762.94;4912069;29;20043;-68
2024/04/08 02:37:27;;;;;;;6.05;5.00;;;;;;;11.30;100.00;100764.72;4910882;29;20040;-68
2024/04/08 02:39:53;;;;;;;7.43;5.20;;;;;;;11.31;100.00;100763.78;4912475;29;20031;-68
2024/04/08 02:42:18;;;;;;;12.05;4.85;;;;;;;11.31;100.00;100761.16;4911634;29;20047;-68
2024/04/08 02:44:44;;;;;;;10.48;4.95;;;;;;;11.27;100.00;100751.97;4910683;29;20115;-68
2024/04/08 02:47:09;;;;;;;11.90;4.35;;;;;;;11.22;100.00;100760.22;4911732;29;20149;-68
2024/04/08 02:49:35;;;;;;;8.98;4.65;;;;;;;11.23;100.00;100756.66;4910413;29;20043;-68
2024/04/08 02:52:01;;;;;;;7.38;4.43;;;;;;;11.28;100.00;100757.06;4915642;29;20138;-68
2024/04/08 02:54:26;;;;;;;7.03;4.63;;;;;;;11.24;100.00;100760.91;4914366;29;20040;-68
2024/04/08 02:56:52;;;;;;;8.65;4.75;;;;;;;11.26;100.00;100764.19;4915438;29;20388;-69
2024/04/08 02:59:17;;;;;;;5.65;4.60;;;;;;;11.20;100.00;100772.56;4913337;29;20047;-68
2024/04/08 03:01:43;;;;;;;9.60;4.70;;;;;;;11.15;100.00;100771.34;4914234;29;20473;-68
2024/04/08 03:04:08;;;;;;;13.77;4.55;;;;;;;11.14;100.00;100780.13;4913710;29;20108;-68
2024/04/08 03:06:34;;;;;;;11.32;5.45;;;;;;;11.17;100.00;100782.47;4914550;29;20047;-68
2024/04/08 03:09:00;;;;;;;6.57;4.63;;;;;;;11.16;100.00;100788.66;4913748;29;20473;-68
2024/04/08 03:11:25;;;;;;;7.90;5.07;;;;;;;11.15;100.00;100787.81;4914761;29;20134;-67
2024/04/08 03:13:51;;;;;;;7.53;4.65;;;;;;;11.15;100.00;100787.00;4914599;29;20586;-68
2024/04/08 03:16:16;;;;;;;5.68;4.22;;;;;;;11.18;100.00;100781.50;4912630;29;20488;-68
2024/04/08 03:18:42;;;;;;;7.45;5.13;;;;;;;11.17;100.00;100787.69;4914856;29;20489;-68
2024/04/08 03:21:07;;;;;;;7.28;4.60;;;;;;;11.15;100.00;100790.44;4909710;29;20107;-68
2024/04/08 03:23:33;;;;;;;6.85;3.97;;;;;;;11.11;100.00;100786.47;4914194;29;20032;-68
2024/04/08 03:26:03;;;;;;;5.50;3.95;;;;;;;11.09;100.00;100787.56;4911532;29;20024;-68
2024/04/08 03:28:29;;;;;;;6.57;4.50;;;;;;;11.08;100.00;100783.31;4912064;29;20437;-68
2024/04/08 03:30:56;;;;;;;13.60;5.15;;;;;;;11.07;100.00;100787.69;4911553;29;20537;-68
2024/04/08 03:33:25;;;;;;;7.38;4.28;;;;;;;11.01;100.00;100785.66;4914530;29;20060;-68
2024/04/08 03:35:51;;;;;;;6.45;4.30;;;;;;;10.94;100.00;100777.56;4912400;29;20520;-68
2024/04/08 03:38:17;;;;;;;9.93;5.28;;;;;;;10.91;100.00;100780.44;4916350;29;20046;-68
2024/04/08 03:40:44;;;;;;;8.52;4.85;;;;;;;10.90;100.00;100773.56;4915081;29;20044;-68
2024/04/08 03:43:09;;;;;;;8.25;4.88;;;;;;;10.91;100.00;100779.63;4913352;29;20040;-68
2024/04/08 03:45:36;;;;;;;13.60;5.78;;;;;;;10.88;100.00;100778.09;4914253;29;20470;-68
2024/04/08 03:48:01;;;;;;;17.35;7.40;;;;;;;10.92;100.00;100783.88;4912499;29;20040;-67
2024/04/08 03:50:31;;;;;;;10.90;6.50;;;;;;;10.89;100.00;100782.34;4914258;29;20046;-68
2024/04/08 03:52:57;;;;;;;10.13;5.70;;;;;;;10.91;100.00;100793.47;4914133;29;20032;-68
2024/04/08 03:55:24;;;;;;;9.65;5.30;;;;;;;10.92;100.00;100792.50;4912438;29;20028;-68
2024/04/08 03:57:50;;;;;;;8.13;5.28;;;;;;;10.92;100.00;100784.69;4914745;29;20032;-68
2024/04/08 04:00:15;;;;;;;9.25;5.38;;;;;;;10.92;100.00;100789.91;4909630;29;20047;-68
2024/04/08 04:02:41;;;;;;;10.65;5.50;;;;;;;10.91;100.00;100793.47;4912284;29;20174;-68
2024/04/08 04:05:06;;;;;;;8.15;5.43;;;;;;;10.85;100.00;100794.06;4912531;29;20040;-68
2024/04/08 04:07:32;;;;;;;8.27;5.15;;;;;;;10.83;100.00;100793.38;4914993;29;20051;-69
2024/04/08 04:10:04;;;;;;;15.65;6.30;;;;;;;10.85;100.00;100801.88;4913317;29;20074;-68
2024/04/08 04:12:33;;;;;;;10.05;5.88;;;;;;;10.87;100.00;100789.50;4911449;29;20044;-68
2024/04/08 04:15:00;;;;;;;11.32;5.82;;;;;;;10.92;100.00;100796.91;4912082;29;20036;-68
2024/04/08 04:17:26;;;;;;;9.50;5.57;;;;;;;10.96;100.00;100799.09;4913080;29;20099;-68
2024/04/08 04:19:51;;;;;;;10.63;5.07;;;;;;;11.04;100.00;100798.41;4912725;29;20067;-68
2024/04/08 04:22:17;;;;;;;13.50;5.82;;;;;;;11.08;100.00;100801.56;4913423;29;20153;-68
2024/04/08 04:24:42;;;;;;;10.95;4.90;;;;;;;11.05;100.00;100807.88;4914050;29;20020;-68
2024/04/08 04:27:08;;;;;;;9.48;5.28;;;;;;;11.02;100.00;100804.72;4913429;29;20444;-68
2024/04/08 04:29:33;;;;;;;8.60;4.95;;;;;;;11.04;100.00;100815.84;4913416;29;20051;-68
2024/04/08 04:31:59;;;;;;;10.82;5.07;;;;;;;11.06;100.00;100808.69;4913102;29;20032;-68
2024/04/08 04:34:24;;;;;;;9.85;5.22;;;;;;;11.05;100.00;100818.31;4913386;29;20048;-68
2024/04/08 04:36:50;;;;;;;13.38;5.22;;;;;;;11.04;100.00;100814.03;4914289;29;20040;-68
2024/04/08 04:39:15;;;;;;;10.60;5.47;;;;;;;11.05;100.00;100818.31;4912399;29;20051;-68
2024/04/08 04:41:40;;;;;;;7.43;5.05;;;;;;;11.06;100.00;100824.34;4915905;29;20496;-68
2024/04/08 04:44:06;;;;;;;10.55;5.53;;;;;;;11.01;100.00;100821.31;4913003;29;20040;-68
2024/04/08 04:46:31;;;;;;;9.05;4.80;;;;;;;11.02;100.00;100828.19;4910592;29;20476;-68
2024/04/08 04:48:57;;;;;;;12.20;5.25;;;;;;;11.03;100.00;100835.03;4912928;29;20063;-68
2024/04/08 04:51:22;;;;;;;11.18;4.82;;;;;;;11.01;100.00;100829.97;4912914;29;20127;-68
2024/04/08 04:53:48;;;;;;;6.15;5.38;;;;;;;11.08;100.00;100833.66;4912233;29;20443;-71
2024/04/08 04:56:13;;;;;;;9.65;4.57;;;;;;;11.08;100.00;100830.25;4912169;29;20043;-71
2024/04/08 04:58:39;;;;;;;12.38;5.43;;;;;;;11.06;100.00;100832.97;4914023;29;20032;-71
2024/04/08 05:01:04;;;;;;;8.57;5.55;;;;;;;11.17;100.00;100842.44;4911702;29;20058;-71
2024/04/08 05:03:30;;;;;;;10.32;4.38;;;;;;;11.20;100.00;100843.00;4911788;29;20115;-70
2024/04/08 05:05:56;;;;;;;9.45;4.47;;;;;;;11.24;100.00;100843.53;4912410;29;20040;-71
2024/04/08 05:08:22;;;;;;;13.23;4.32;;;;;;;11.29;100.00;100846.56;4912392;29;20464;-70
2024/04/08 05:10:48;;;;;;;8.25;4.28;;;;;;;11.35;100.00;100845.97;4912581;29;20036;-70
2024/04/08 05:13:16;;;;;;;9.25;5.53;;;;;;;11.41;100.00;100844.59;4913180;29;20040;-70
2024/04/08 05:15:41;;;;;;;9.13;4.38;;;;;;;11.46;100.00;100848.44;4904032;29;20040;-70
2024/04/08 05:18:07;;;;;;;7.40;3.83;;;;;;;11.51;100.00;100841.00;4912554;29;20040;-70
2024/04/08 05:20:34;;;;;;;9.40;4.18;;;;;;;11.58;100.00;100842.09;4912903;29;20552;-70
2024/04/08 05:23:00;;;;;;;6.95;4.10;;;;;;;11.67;100.00;100844.81;4912262;29;20047;-71
2024/04/08 05:25:25;;;;;;;10.48;5.10;;;;;;;11.74;100.00;100827.63;4912144;29;20488;-70
2024/04/08 05:27:51;;;;;;;6.72;5.15;;;;;;;11.75;100.00;100837.09;4913421;29;20062;-70
2024/04/08 05:30:16;;;;;;;9.82;4.85;;;;;;;11.85;100.00;100835.28;4911217;29;20035;-70
2024/04/08 05:32:42;;;;;;;14.32;5.38;;;;;;;11.97;100.00;100836.75;4912941;29;20039;-70
2024/04/08 05:35:08;;;;;;;10.48;4.05;;;;;;;12.07;100.00;100841.94;4912449;29;20050;-71
2024/04/08 05:37:34;;;;;;;8.40;4.28;;;;;;;12.16;100.00;100839.28;4909749;29;20032;-70
2024/04/08 05:39:59;;;;;;;6.53;3.45;;;;;;;12.26;100.00;100831.38;4914598;29;20036;-70
2024/04/08 05:42:25;;;;;;;7.13;3.70;;;;;;;12.36;100.00;100839.16;4912233;29;20058;-70
2024/04/08 05:44:50;;;;;;;7.53;4.47;;;;;;;12.43;100.00;100824.53;4913593;29;20119;-70
2024/04/08 05:47:16;;;;;;;9.75;5.43;;;;;;;12.54;100.00;100840.00;4911934;29;20036;-70
2024/04/08 05:49:41;;;;;;;11.27;4.55;;;;;;;12.67;100.00;100831.81;4911811;29;20028;-70
2024/04/08 05:52:07;;;;;;;10.18;4.93;;;;;;;12.79;100.00;100830.59;4912925;29;20127;-70
2024/04/08 05:54:32;;;;;;;11.40;5.00;;;;;;;12.95;100.00;100838.56;4913532;29;20433;-70
2024/04/08 05:56:58;;;;;;;11.68;4.22;;;;;;;13.11;100.00;100840.50;4910723;29;20036;-71
2024/04/08 05:59:26;;;;;;;9.82;4.95;;;;;;;13.16;100.00;100851.38;4914779;29;20115;-70
2024/04/08 06:01:52;;;;;;;6.95;3.40;;;;;;;13.11;100.00;100853.59;4910368;29;20486;-70
2024/04/08 06:04:17;;;;;;;5.53;2.75;;;;;;;13.13;100.00;100846.41;4912492;29;20043;-70
2024/04/08 06:06:43;;;;;;;4.88;2.70;;;;;;;13.22;100.00;100845.53;4910363;29;20043;-71
2024/04/08 06:09:10;;;;;;;6.55;3.17;;;;;;;13.33;100.00;100847.88;4911022;29;20170;-71
2024/04/08 06:11:35;;;;;;;8.02;2.40;;;;;;;13.44;100.00;100842.41;4911393;29;20063;-71
2024/04/08 06:14:01;;;;;;;11.73;2.83;;;;;;;13.37;100.00;100844.00;4911711;29;20040;-70
2024/04/08 06:16:26;;;;;;;3.42;2.72;;;;;;;13.55;100.00;100846.56;4910860;29;20633;-71
2024/04/08 06:18:52;;;;;;;6.10;2.80;;;;;;;13.73;100.00;100849.09;4911019;29;20171;-70
2024/04/08 06:21:17;;;;;;;10.15;3.50;;;;;;;13.90;100.00;100851.66;4910475;29;20060;-71
2024/04/08 06:23:43;;;;;;;11.40;3.10;;;;;;;14.10;100.00;100849.63;4911663;29;20035;-71
2024/04/08 06:26:09;;;;;;;9.50;3.13;;;;;;;14.26;100.00;100847.03;4914216;29;20032;-71
2024/04/08 06:28:34;;;;;;;10.15;5.03;;;;;;;14.31;100.00;100845.75;4915623;29;20185;-71
2024/04/08 06:31:01;;;;;;;12.13;5.82;;;;;;;14.34;100.00;100848.88;4916749;29;20032;-72
2024/04/08 06:33:28;;;;;;;8.88;4.85;;;;;;;14.53;100.00;100837.31;4914603;29;20591;-70
2024/04/08 06:35:54;;;;;;;7.60;5.35;;;;;;;14.62;100.00;100846.84;4915740;29;20425;-70
2024/04/08 06:38:20;;;;;;;10.25;5.00;;;;;;;14.72;100.00;100850.13;4915376;29;20118;-70
2024/04/08 06:40:46;;;;;;;15.15;5.15;;;;;;;14.76;100.00;100848.81;4911186;29;20545;-69
2024/04/08 06:43:12;;;;;;;9.23;5.15;;;;;;;14.88;100.00;100851.94;4915722;29;20043;-70
2024/04/08 06:45:37;;;;;;;23.55;6.82;;;;;;;15.00;100.00;100850.66;4916139;29;20389;-71
2024/04/08 06:48:03;;;;;;;19.85;6.70;;;;;;;15.11;100.00;100847.69;4916325;29;20047;-71
2024/04/08 06:50:29;;;;;;;16.75;6.43;;;;;;;15.32;100.00;100852.44;4914473;29;20127;-71
2024/04/08 06:52:54;;;;;;;16.00;5.72;;;;;;;15.43;100.00;100853.91;4915535;29;20437;-71
2024/04/08 06:55:20;;;;;;;13.38;6.63;;;;;;;15.59;100.00;100854.72;4913367;29;20035;-71
2024/04/08 06:57:45;;;;;;;16.58;6.43;;;;;;;15.81;100.00;100847.91;4915966;29;20036;-71
2024/04/08 07:00:11;;;;;;;8.35;5.03;;;;;;;15.96;100.00;100847.22;4914955;29;20028;-71
2024/04/08 07:02:37;;;;;;;12.57;6.13;;;;;;;15.99;100.00;100844.25;4915553;29;20064;-70
2024/04/08 07:05:04;;;;;;;10.80;5.85;;;;;;;16.09;100.00;100843.03;4913838;29;20076;-71
2024/04/08 07:07:30;;;;;;;11.13;5.35;;;;;;;16.06;100.00;100842.59;4914450;29;20040;-69
2024/04/08 07:09:56;;;;;;;10.38;6.38;;;;;;;16.12;100.00;100847.94;4914905;29;20094;-68
2024/04/08 07:12:21;;;;;;;13.23;7.20;;;;;;;16.32;100.00;100848.34;4914037;29;20028;-68
2024/04/08 07:14:52;;;;;;;13.38;6.57;;;;;;;16.52;100.00;100867.16;4914490;29;20508;-69
2024/04/08 07:17:21;;;;;;;11.15;6.53;;;;;;;16.64;100.00;100871.03;4913703;29;20043;-70
2024/04/08 07:19:48;;;;;;;9.27;6.70;;;;;;;16.78;100.00;100874.75;4915385;29;20036;-69
2024/04/08 07:22:13;;;;;;;16.98;6.53;;;;;;;16.71;100.00;100882.50;4914495;29;20036;-70
2024/04/08 07:24:40;;;;;;;11.80;6.97;;;;;;;16.57;100.00;100881.41;4915678;29;20028;-70
2024/04/08 07:27:06;;;;;;;15.23;6.22;;;;;;;16.48;100.00;100877.22;4915459;29;20068;-70
2024/04/08 07:29:32;;;;;;;11.55;5.75;;;;;;;16.33;100.00;100880.72;4913727;29;20031;-70
2024/04/08 07:31:58;;;;;;;8.30;4.70;;;;;;;16.26;100.00;100881.41;4915255;29;20130;-71
2024/04/08 07:34:24;;;;;;;11.75;5.63;;;;;;;16.23;100.00;100889.66;4912944;29;20282;-70
2024/04/08 07:36:49;;;;;;;12.25;5.95;;;;;;;16.19;100.00;100885.72;4913887;29;20043;-69
2024/04/08 07:39:15;;;;;;;16.70;5.63;;;;;;;16.05;100.00;100873.31;4914083;29;20119;-71
2024/04/08 07:41:40;;;;;;;10.27;4.97;;;;;;;16.09;100.00;100882.47;4913918;29;20110;-72
2024/04/08 07:44:07;;;;;;;10.85;5.53;;;;;;;16.22;100.00;100882.75;4913677;29;20035;-70
2024/04/08 07:46:32;;;;;;;8.30;4.80;;;;;;;16.48;100.00;100879.03;4915193;29;20032;-71
2024/04/08 07:48:58;;;;;;;7.47;5.47;;;;;;;17.02;100.00;100879.00;4914235;29;20036;-71
2024/04/08 07:51:23;;;;;;;12.77;3.85;;;;;;;17.59;100.00;100877.50;4913808;29;20040;-70
2024/04/08 07:53:49;;;;;;;15.20;3.53;;;;;;;18.09;99.93;100886.53;4914998;29;20028;-69
2024/04/08 07:56:14;;;;;;;4.10;2.20;;;;;;;17.91;94.22;100883.47;4911706;29;20188;-69
2024/04/08 07:58:40;;;;;;;8.35;3.13;;;;;;;17.92;98.36;100886.91;4914657;29;20036;-69
2024/04/08 08:01:07;;;;;;;4.53;1.58;;;;;;;18.07;96.44;100890.34;4915736;29;20055;-71
2024/04/08 08:03:33;;;;;;;6.13;1.77;;;;;;;18.39;95.78;100897.06;4913156;29;20032;-69
2024/04/08 08:05:58;;;;;;;3.72;1.98;;;;;;;18.88;94.30;100891.94;4914146;29;20087;-69
2024/04/08 08:08:27;;;;;;;8.05;2.53;;;;;;;19.36;92.33;100900.06;4911198;29;20035;-69
2024/04/08 08:10:52;;;;;;;2.53;1.85;;;;;;;20.08;90.20;100899.72;4917718;29;20045;-69
2024/04/08 08:13:18;;;;;;;12.57;2.05;;;;;;;20.15;84.35;100904.03;4914165;29;20099;-69
2024/04/08 08:15:54;;;;;;;9.52;2.40;;;;;;;20.86;79.79;100911.63;4914441;29;20036;-69
2024/04/08 08:18:19;;;;;;;4.35;1.80;;;;;;;22.28;80.38;100908.47;4914010;29;20697;-68
2024/04/08 08:20:45;;;;;;;7.38;2.40;;;;;;;23.25;76.43;100905.44;4912907;29;20084;-69
2024/04/08 08:23:10;;;;;;;3.47;2.03;;;;;;;24.29;72.28;100909.13;4910082;29;20567;-69
2024/04/08 08:25:36;;;;;;;4.03;1.85;;;;;;;24.67;70.19;100914.97;4911311;29;20039;-69
2024/04/08 08:28:02;;;;;;;6.22;1.77;;;;;;;24.56;70.32;100921.09;4913085;29;20076;-68
2024/04/08 08:30:28;;;;;;;4.63;1.50;;;;;;;23.72;72.80;100935.13;4913339;29;20028;-67
2024/04/08 08:32:54;;;;;;;5.05;1.30;;;;;;;22.63;76.97;100928.31;4914314;29;20055;-67
2024/04/08 08:35:20;;;;;;;5.38;2.20;;;;;;;21.68;80.76;100931.69;4896275;29;20123;-68
2024/04/08 08:37:46;;;;;;;8.80;4.38;;;;;;;21.56;84.58;100928.81;4912064;29;20098;-68
2024/04/08 08:40:11;;;;;;;9.43;5.45;;;;;;;21.67;85.66;100930.03;4911626;29;20086;-68
2024/04/08 08:42:37;;;;;;;8.10;4.63;;;;;;;21.91;84.33;100921.41;4910534;29;20054;-68
2024/04/08 08:45:05;;;;;;;8.57;5.45;;;;;;;21.69;85.35;100930.66;4913446;29;20028;-68
2024/04/08 08:47:32;;;;;;;10.73;5.95;;;;;;;21.58;86.66;100931.28;4912448;29;20156;-68
2024/04/08 08:49:57;;;;;;;8.88;4.53;;;;;;;21.71;86.61;100928.63;4913818;29;20171;-68
2024/04/08 08:52:24;;;;;;;10.35;4.45;;;;;;;21.77;86.76;100930.41;4908810;29;20496;-67
2024/04/08 08:54:53;;;;;;;7.43;4.35;;;;;;;21.85;85.97;100935.50;4911667;29;20038;-68
2024/04/08 08:57:19;;;;;;;9.70;4.60;;;;;;;21.84;85.66;100933.88;4910199;29;20059;-67
2024/04/08 08:59:50;;;;;;;8.25;3.85;;;;;;;21.46;87.85;100931.06;4913673;29;20032;-67
2024/04/08 09:02:16;;;;;;;7.50;4.43;;;;;;;21.46;87.90;100937.19;4913053;29;20114;-67
2024/04/08 09:04:42;;;;;;;7.65;3.97;;;;;;;21.72;87.81;100938.19;4913144;29;20032;-67
2024/04/08 09:07:08;;;;;;;7.63;3.33;;;;;;;21.77;86.25;100928.56;4912773;29;20048;-68
2024/04/08 09:09:34;;;;;;;9.13;3.78;;;;;;;21.77;85.88;100928.56;4913560;29;20090;-67
2024/04/08 09:12:00;;;;;;;5.68;3.10;;;;;;;21.37;88.29;100933.09;4912604;29;20094;-67
2024/04/08 09:14:30;;;;;;;6.18;2.55;;;;;;;21.14;89.01;100935.31;4908226;29;20028;-67
2024/04/08 09:17:06;;;;;;;6.43;2.13;;;;;;;20.96;87.56;100932.44;4917757;29;20036;-67
2024/04/08 09:19:31;;;;;;;5.65;2.50;;;;;;;20.90;87.46;100930.56;4908497;29;20036;-67
2024/04/08 09:21:57;;;;;;;5.18;2.05;;;;;;;20.66;88.84;100931.97;4910023;29;20035;-68
2024/04/08 09:24:22;;;;;;;5.03;1.67;;;;;;;20.60;85.72;100925.63;4911483;29;20032;-67
2024/04/08 09:26:48;;;;;;;6.05;1.75;;;;;;;20.53;88.42;100930.91;4912577;29;20064;-67
2024/04/08 09:29:13;;;;;;;6.60;2.03;;;;;;;20.47;88.97;100930.88;4912021;29;20106;-67
2024/04/08 09:31:39;;;;;;;7.50;2.28;;;;;;;20.42;89.12;100928.81;4913562;29;20036;-67
2024/04/08 09:34:05;;;;;;;7.75;1.92;;;;;;;20.39;88.07;100931.84;4911946;29;20032;-67
2024/04/08 09:36:32;;;;;;;6.43;3.15;;;;;;;20.41;88.10;100927.19;4912489;29;20032;-67
2024/04/08 09:39:01;;;;;;;7.10;3.05;;;;;;;20.26;87.33;100930.97;4908836;29;20413;-68
2024/04/08 09:41:29;;;;;;;7.30;3.35;;;;;;;20.23;88.60;100934.00;4912617;29;20027;-68
2024/04/08 09:43:56;;;;;;;6.07;3.13;;;;;;;20.18;89.35;100932.75;4909328;29;20103;-67
2024/04/08 09:46:22;;;;;;;5.00;3.67;;;;;;;20.08;90.15;100924.34;4911965;29;20119;-67
2024/04/08 09:48:52;;;;;;;4.30;3.30;;;;;;;20.08;90.34;100924.34;4910818;29;20055;-67
2024/04/08 09:51:19;;;;;;;4.55;3.20;;;;;;;20.17;89.60;100928.47;4912660;29;20036;-67
2024/04/08 09:53:44;;;;;;;5.80;3.50;;;;;;;20.20;89.55;100933.38;4912961;29;20103;-68
2024/04/08 09:56:17;;;;;;;5.57;4.22;;;;;;;20.00;87.49;100921.88;4912845;29;20032;-67
2024/04/08 09:59:21;;;;;;;9.10;4.40;;;;;;;19.91;87.67;100920.38;4912926;29;20032;-67
2024/04/08 10:01:47;;;;;;;11.75;4.70;;;;;;;20.04;90.97;100928.41;4887477;29;20040;-68
2024/04/08 10:04:15;;;;;;;10.57;4.93;;;;;;;20.05;90.23;100927.38;4910628;29;20134;-67
2024/04/08 10:06:42;;;;;;;8.02;5.15;;;;;;;20.09;90.99;100926.00;4896218;29;20100;-67
2024/04/08 10:09:10;;;;;;;8.00;4.90;;;;;;;20.13;90.88;100924.59;4911130;29;20044;-67
2024/04/08 10:11:36;;;;;;;8.30;4.10;;;;;;;20.25;89.99;100924.84;4912173;29;20047;-66
2024/04/08 10:14:01;;;;;;;9.18;4.13;;;;;;;20.37;89.57;100919.78;4911161;29;20032;-66
2024/04/08 10:16:30;;;;;;;12.85;4.72;;;;;;;20.26;88.94;100915.09;4911347;29;20036;-67
2024/04/08 10:18:56;;;;;;;12.65;4.57;;;;;;;20.26;88.70;100923.84;4911944;29;20036;-68
2024/04/08 10:21:25;;;;;;;10.38;4.82;;;;;;;20.30;89.43;100925.09;4911913;29;20043;-67
2024/04/08 10:23:54;;;;;;;10.93;4.78;;;;;;;20.33;89.50;100922.00;4911205;29;20400;-68
2024/04/08 10:26:24;;;;;;;7.00;4.95;;;;;;;20.36;89.82;100915.50;4911426;29;20030;-67
2024/04/08 10:28:51;;;;;;;12.70;4.30;;;;;;;20.26;89.58;100913.25;4913107;29;20047;-67
2024/04/08 10:31:20;;;;;;;9.27;4.07;;;;;;;20.37;90.09;100919.78;4912035;29;20036;-67
2024/04/08 10:33:46;;;;;;;5.93;4.05;;;;;;;20.57;89.73;100917.25;4912059;29;20378;-67
2024/04/08 10:36:11;;;;;;;10.23;4.22;;;;;;;20.73;88.53;100920.38;4911311;29;20032;-67
2024/04/08 10:38:37;;;;;;;10.40;4.25;;;;;;;20.73;87.62;100908.97;4912156;29;20115;-67
2024/04/08 10:41:07;;;;;;;7.28;3.55;;;;;;;20.77;87.87;100915.50;4912938;29;20036;-67
2024/04/08 10:43:36;;;;;;;6.13;3.80;;;;;;;20.85;84.37;100917.94;4912256;29;20032;-67
2024/04/08 10:46:07;;;;;;;4.07;2.63;;;;;;;20.98;86.46;100917.97;4912902;29;20028;-67
2024/04/08 10:48:35;;;;;;;6.82;2.80;;;;;;;21.06;86.21;100919.59;4912565;29;20064;-67
2024/04/08 10:51:01;;;;;;;7.22;3.05;;;;;;;20.99;85.35;100916.13;4912652;29;20488;-67
2024/04/08 10:53:27;;;;;;;5.20;2.17;;;;;;;20.89;85.90;100913.88;4910053;29;20523;-67
2024/04/08 10:55:52;;;;;;;6.25;2.20;;;;;;;20.92;85.91;100916.13;4912594;29;20056;-68
2024/04/08 10:58:18;;;;;;;5.97;2.72;;;;;;;20.93;85.98;100915.09;4912172;29;20491;-68
2024/04/08 11:00:45;;;;;;;6.05;2.10;;;;;;;21.04;84.73;100911.88;4912440;29;20087;-68
2024/04/08 11:03:12;;;;;;;5.03;2.65;;;;;;;21.06;84.62;100909.81;4912299;29;20032;-67
2024/04/08 11:05:38;;;;;;;5.10;1.63;;;;;;;21.06;84.29;100903.72;4911129;29;20049;-68
2024/04/08 11:08:04;;;;;;;5.25;1.10;;;;;;;21.10;83.26;100902.28;4912848;29;20036;-68
2024/04/08 11:10:30;;;;;;;1.95;0.70;;;;;;;21.16;82.48;100906.78;4911840;29;20039;-67
2024/04/08 11:12:56;;;;;;;3.30;0.80;;;;;;;21.13;80.88;100901.88;4915749;29;20039;-67